createdAt,value
2022-11-08T00:00:41.484Z,100.00
2022-11-08T00:03:09.391Z,100.00
2022-11-08T00:05:54.678Z,100.00
2022-11-08T00:08:41.236Z,100.00
2022-11-08T00:11:26.550Z,100.00
2022-11-08T00:14:00.331Z,100.00
2022-11-08T00:16:28.409Z,100.00
2022-11-08T00:18:56.300Z,100.00
2022-11-08T00:21:24.017Z,100.00
2022-11-08T00:23:53.179Z,100.00
2022-11-08T00:26:20.904Z,100.00
2022-11-08T00:28:48.706Z,100.00
2022-11-08T00:31:16.514Z,100.00
2022-11-08T00:33:44.253Z,100.00
2022-11-08T00:36:12.036Z,100.00
2022-11-08T00:38:43.039Z,100.00
2022-11-08T00:41:12.228Z,100.00
2022-11-08T00:43:40.151Z,100.00
2022-11-08T00:46:07.874Z,100.00
2022-11-08T00:48:35.675Z,100.00
2022-11-08T00:51:04.001Z,100.00
2022-11-08T00:53:31.809Z,100.00
2022-11-08T00:56:00.441Z,100.00
2022-11-08T00:58:30.160Z,100.00
2022-11-08T01:00:59.055Z,100.00
2022-11-08T01:03:27.813Z,100.00
2022-11-08T01:05:55.954Z,100.00
2022-11-08T01:08:24.743Z,100.00
2022-11-08T01:10:53.175Z,100.00
2022-11-08T01:13:21.419Z,100.00
2022-11-08T01:15:50.662Z,100.00
2022-11-08T01:18:19.251Z,100.00
2022-11-08T01:20:50.133Z,100.00
2022-11-08T01:23:19.482Z,100.00
2022-11-08T01:25:48.838Z,100.00
2022-11-08T01:28:17.355Z,100.00
2022-11-08T01:30:46.132Z,100.00
2022-11-08T01:33:16.235Z,100.00
2022-11-08T01:35:46.199Z,100.00
2022-11-08T01:38:14.207Z,100.00
2022-11-08T01:40:46.390Z,100.00
2022-11-08T01:43:39.711Z,100.00
2022-11-08T01:46:41.317Z,100.00
2022-11-08T01:49:21.947Z,100.00
2022-11-08T01:51:55.617Z,100.00
2022-11-08T01:54:29.034Z,100.00
2022-11-08T01:56:58.859Z,100.00
2022-11-08T01:59:27.084Z,100.00
2022-11-08T02:01:56.155Z,100.00
2022-11-08T02:04:25.662Z,100.00
2022-11-08T02:06:53.899Z,100.00
2022-11-08T02:09:21.976Z,100.00
2022-11-08T02:11:50.792Z,100.00
2022-11-08T02:14:18.912Z,100.00
2022-11-08T02:16:47.362Z,100.00
2022-11-08T02:19:21.680Z,100.00
2022-11-08T02:21:56.281Z,100.00
2022-11-08T02:24:25.493Z,100.00
2022-11-08T02:26:55.983Z,100.00
2022-11-08T02:29:26.429Z,100.00
2022-11-08T02:31:54.927Z,100.00
2022-11-08T02:34:26.756Z,100.00
2022-11-08T02:36:55.006Z,100.00
2022-11-08T02:39:22.800Z,100.00
2022-11-08T02:41:52.332Z,100.00
2022-11-08T02:44:20.177Z,100.00
2022-11-08T02:46:47.949Z,100.00
2022-11-08T02:49:15.784Z,100.00
2022-11-08T02:51:43.559Z,100.00
2022-11-08T02:54:11.377Z,100.00
2022-11-08T02:56:39.202Z,100.00
2022-11-08T02:59:08.353Z,100.00
2022-11-08T03:01:36.275Z,100.00
2022-11-08T03:04:04.208Z,100.00
2022-11-08T03:06:32.053Z,100.00
2022-11-08T03:08:59.857Z,100.00
2022-11-08T03:11:27.619Z,100.00
2022-11-08T03:13:55.359Z,100.00
2022-11-08T03:16:24.681Z,100.00
2022-11-08T03:18:52.548Z,100.00
2022-11-08T03:21:20.396Z,100.00
2022-11-08T03:23:48.201Z,100.00
2022-11-08T03:26:15.998Z,100.00
2022-11-08T03:28:43.849Z,100.00
2022-11-08T03:31:11.610Z,100.00
2022-11-08T03:33:40.726Z,100.00
2022-11-08T03:36:09.116Z,100.00
2022-11-08T03:38:36.854Z,100.00
2022-11-08T03:41:04.631Z,100.00
2022-11-08T03:43:32.490Z,100.00
2022-11-08T03:46:00.304Z,100.00
2022-11-08T03:48:28.109Z,100.00
2022-11-08T03:50:57.467Z,100.00
2022-11-08T03:53:25.299Z,100.00
2022-11-08T03:55:53.098Z,100.00
2022-11-08T03:58:21.094Z,100.00
2022-11-08T04:00:49.156Z,100.00
2022-11-08T04:03:16.879Z,100.00
2022-11-08T04:05:44.784Z,100.00
2022-11-08T04:08:13.878Z,100.00
2022-11-08T04:10:42.018Z,100.00
2022-11-08T04:13:27.737Z,100.00
2022-11-08T04:15:57.311Z,100.00
2022-11-08T04:18:42.722Z,100.00
2022-11-08T04:21:22.963Z,100.00
2022-11-08T04:23:53.367Z,100.00
2022-11-08T04:26:22.583Z,100.00
2022-11-08T04:28:50.409Z,100.00
2022-11-08T04:31:20.735Z,100.00
2022-11-08T04:33:48.524Z,100.00
2022-11-08T04:36:17.877Z,100.00
2022-11-08T04:38:49.460Z,100.00
2022-11-08T04:41:20.429Z,100.00
2022-11-08T04:43:49.079Z,100.00
2022-11-08T04:46:19.453Z,100.00
2022-11-08T04:48:47.729Z,100.00
2022-11-08T04:51:17.212Z,100.00
2022-11-08T04:53:45.095Z,100.00
2022-11-08T04:56:14.605Z,100.00
2022-11-08T04:58:45.944Z,100.00
2022-11-08T05:01:16.038Z,100.00
2022-11-08T05:03:44.339Z,100.00
2022-11-08T05:06:13.680Z,100.00
2022-11-08T05:08:41.695Z,100.00
2022-11-08T05:11:11.792Z,100.00
2022-11-08T05:13:39.734Z,100.00
2022-11-08T05:16:11.652Z,100.00
2022-11-08T05:18:41.852Z,100.00
2022-11-08T05:21:29.692Z,100.00
2022-11-08T05:23:57.751Z,100.00
2022-11-08T05:26:26.118Z,100.00
2022-11-08T05:28:54.233Z,100.00
2022-11-08T05:31:23.330Z,100.00
2022-11-08T05:33:52.868Z,100.00
2022-11-08T05:36:21.092Z,100.00
2022-11-08T05:38:49.051Z,100.00
2022-11-08T05:41:19.526Z,100.00
2022-11-08T05:43:50.311Z,100.00
2022-11-08T05:46:19.551Z,100.00
2022-11-08T05:48:49.752Z,100.00
2022-11-08T05:51:18.955Z,100.00
2022-11-08T05:53:48.756Z,100.00
2022-11-08T05:56:17.540Z,100.00
2022-11-08T05:58:45.588Z,100.00
2022-11-08T06:01:14.720Z,100.00
2022-11-08T06:03:42.546Z,100.00
2022-11-08T06:06:13.922Z,100.00
2022-11-08T06:08:44.969Z,100.00
2022-11-08T06:11:17.328Z,100.00
2022-11-08T06:13:45.297Z,100.00
2022-11-08T06:16:16.323Z,100.00
2022-11-08T06:18:44.134Z,100.00
2022-11-08T06:21:16.041Z,100.00
2022-11-08T06:23:44.137Z,100.00
2022-11-08T06:26:11.893Z,100.00
2022-11-08T06:28:39.736Z,100.00
2022-11-08T06:31:07.591Z,100.00
2022-11-08T06:33:35.424Z,100.00
2022-11-08T06:36:03.261Z,100.00
2022-11-08T06:38:32.429Z,100.00
2022-11-08T06:41:00.759Z,100.00
2022-11-08T06:43:29.027Z,100.00
2022-11-08T06:46:00.278Z,100.00
2022-11-08T06:48:32.415Z,100.00
2022-11-08T06:51:03.302Z,100.00
2022-11-08T06:53:33.141Z,100.00
2022-11-08T06:56:00.926Z,100.00
2022-11-08T06:58:28.822Z,100.00
2022-11-08T07:00:56.795Z,100.00
2022-11-08T07:03:24.534Z,100.00
2022-11-08T07:05:52.360Z,100.00
2022-11-08T07:08:23.509Z,100.00
2022-11-08T07:10:53.352Z,100.00
2022-11-08T07:13:21.840Z,100.00
2022-11-08T07:15:49.957Z,100.00
2022-11-08T07:18:19.737Z,100.00
2022-11-08T07:20:48.270Z,100.00
2022-11-08T07:23:16.133Z,100.00
2022-11-08T07:25:43.916Z,100.00
2022-11-08T07:28:17.618Z,100.00
2022-11-08T07:30:46.196Z,100.00
2022-11-08T07:33:14.604Z,100.00
2022-11-08T07:35:42.709Z,100.00
2022-11-08T07:38:10.436Z,100.00
2022-11-08T07:40:38.212Z,100.00
2022-11-08T07:43:11.901Z,100.00
2022-11-08T07:45:42.812Z,100.00
2022-11-08T07:48:13.782Z,100.00
2022-11-08T07:50:43.017Z,100.00
2022-11-08T07:53:11.880Z,100.00
2022-11-08T07:55:41.403Z,100.00
2022-11-08T07:58:11.409Z,100.00
2022-11-08T08:00:40.849Z,100.00
2022-11-08T08:03:11.648Z,100.00
2022-11-08T08:05:41.799Z,100.00
2022-11-08T08:08:09.963Z,100.00
2022-11-08T08:10:38.354Z,100.00
2022-11-08T08:13:07.226Z,100.00
2022-11-08T08:15:35.296Z,100.00
2022-11-08T08:18:04.347Z,100.00
2022-11-08T08:20:34.292Z,100.00
2022-11-08T08:23:02.284Z,100.00
2022-11-08T08:25:31.102Z,100.00
2022-11-08T08:28:01.789Z,100.00
2022-11-08T08:30:31.461Z,100.00
2022-11-08T08:33:30.772Z,100.00
2022-11-08T08:35:55.080Z,100.00
2022-11-08T08:38:23.408Z,100.00
2022-11-08T08:40:52.147Z,100.00
2022-11-08T08:43:20.478Z,100.00
2022-11-08T08:45:49.065Z,100.00
2022-11-08T08:48:17.207Z,100.00
2022-11-08T08:50:44.938Z,100.00
2022-11-08T08:53:14.172Z,100.00
2022-11-08T08:55:42.507Z,100.00
2022-11-08T08:58:11.430Z,100.00
2022-11-08T09:03:26.893Z,100.00
2022-11-08T09:05:54.694Z,100.00
2022-11-08T09:08:24.727Z,100.00
2022-11-08T09:10:54.763Z,100.00
2022-11-08T09:13:23.099Z,100.00
2022-11-08T09:15:51.665Z,100.00
2022-11-08T09:18:19.572Z,100.00
2022-11-08T09:20:47.568Z,100.00
2022-11-08T09:23:17.920Z,100.00
2022-11-08T09:25:47.461Z,100.00
2022-11-08T09:28:15.265Z,100.00
2022-11-08T09:30:43.069Z,100.00
2022-11-08T09:33:10.913Z,100.00
2022-11-08T09:35:38.788Z,100.00
2022-11-08T09:38:07.437Z,100.00
2022-11-08T09:40:39.991Z,100.00
2022-11-08T09:43:30.164Z,100.00
2022-11-08T09:45:58.206Z,100.00
2022-11-08T09:48:30.012Z,100.00
2022-11-08T09:51:00.115Z,100.00
2022-11-08T09:53:35.829Z,100.00
2022-11-08T09:56:12.504Z,100.00
2022-11-08T09:58:48.478Z,100.00
2022-11-08T10:01:16.284Z,100.00
2022-11-08T10:03:50.926Z,100.00
2022-11-08T10:06:42.664Z,100.00
2022-11-08T10:09:25.319Z,100.00
2022-11-08T10:12:10.354Z,100.00
2022-11-08T10:14:54.151Z,100.00
2022-11-08T10:17:35.874Z,99.89
2022-11-08T10:20:20.512Z,97.05
2022-11-08T10:22:54.419Z,96.62
2022-11-08T10:25:26.387Z,94.66
2022-11-08T10:27:57.400Z,94.24
2022-11-08T10:30:34.554Z,92.48
2022-11-08T10:33:03.871Z,92.87
2022-11-08T10:35:37.244Z,93.19
2022-11-08T10:38:16.453Z,94.15
2022-11-08T10:40:49.143Z,93.84
2022-11-08T10:43:23.751Z,91.44
2022-11-08T10:45:53.213Z,90.32
2022-11-08T10:48:21.204Z,87.82
2022-11-08T10:50:51.507Z,87.97
2022-11-08T10:53:26.447Z,87.43
2022-11-08T10:56:00.672Z,86.56
2022-11-08T10:58:33.844Z,86.06
2022-11-08T11:01:06.554Z,86.82
2022-11-08T11:03:34.769Z,87.14
2022-11-08T11:06:04.681Z,87.22
2022-11-08T11:08:32.835Z,86.15
2022-11-08T11:11:23.650Z,86.60
2022-11-08T11:14:07.221Z,86.77
2022-11-08T11:16:37.751Z,87.05
2022-11-08T11:19:06.970Z,86.78
2022-11-08T11:21:40.369Z,86.80
2022-11-08T11:24:12.626Z,87.09
2022-11-08T11:26:46.511Z,85.87
2022-11-08T11:29:25.024Z,85.57
2022-11-08T11:31:55.565Z,84.97
2022-11-08T11:34:37.807Z,83.75
2022-11-08T11:37:15.715Z,84.39
2022-11-08T11:39:53.315Z,83.88
2022-11-08T11:45:19.860Z,83.51
2022-11-08T11:47:53.518Z,83.79
2022-11-08T11:50:30.689Z,84.22
2022-11-08T11:52:59.971Z,83.34
2022-11-08T11:55:35.705Z,83.84
2022-11-08T11:58:17.429Z,84.23
2022-11-08T12:00:57.455Z,84.34
2022-11-08T12:03:48.838Z,84.03
2022-11-08T12:06:32.398Z,83.82
2022-11-08T12:09:14.110Z,82.35
2022-11-08T12:11:54.173Z,80.93
2022-11-08T12:14:37.788Z,77.66
2022-11-08T12:17:24.511Z,76.16
2022-11-08T12:20:07.785Z,74.77
2022-11-08T12:22:52.330Z,74.71
2022-11-08T12:25:26.015Z,74.28
2022-11-08T12:27:58.135Z,72.00
2022-11-08T12:30:33.629Z,71.76
2022-11-08T12:33:17.362Z,71.41
2022-11-08T12:35:59.349Z,71.51
2022-11-08T12:38:35.194Z,70.23
2022-11-08T12:41:14.677Z,70.13
2022-11-08T12:43:59.368Z,69.11
2022-11-08T12:46:30.035Z,70.69
2022-11-08T12:49:13.865Z,71.11
2022-11-08T12:51:57.318Z,71.79
2022-11-08T12:54:31.213Z,71.02
2022-11-08T12:57:03.377Z,70.80
2022-11-08T12:59:38.023Z,71.27
2022-11-08T13:02:11.754Z,70.69
2022-11-08T13:04:44.944Z,70.53
2022-11-08T13:07:25.792Z,69.94
2022-11-08T13:09:59.440Z,69.37
2022-11-08T13:12:38.928Z,68.87
2022-11-08T13:15:17.283Z,68.65
2022-11-08T13:18:33.698Z,68.46
2022-11-08T13:21:01.813Z,67.71
2022-11-08T13:23:33.120Z,68.20
2022-11-08T13:26:22.088Z,68.60
2022-11-08T13:28:50.822Z,68.59
2022-11-08T13:31:23.428Z,68.80
2022-11-08T13:34:15.727Z,69.36
2022-11-08T13:36:55.815Z,69.91
2022-11-08T13:40:00.345Z,71.46
2022-11-08T13:42:40.393Z,71.66
2022-11-08T13:45:28.459Z,70.82
2022-11-08T13:48:02.861Z,71.06
2022-11-08T13:50:52.808Z,70.81
2022-11-08T13:53:45.900Z,70.97
2022-11-08T13:56:45.952Z,71.06
2022-11-08T13:59:50.719Z,72.23
2022-11-08T14:02:41.190Z,72.38
2022-11-08T14:05:29.697Z,72.00
2022-11-08T14:08:29.217Z,71.79
2022-11-08T14:11:15.976Z,71.71
2022-11-08T14:14:11.296Z,71.45
2022-11-08T14:16:48.244Z,71.79
2022-11-08T14:19:22.353Z,71.76
2022-11-08T14:21:52.728Z,72.02
2022-11-08T14:24:26.702Z,72.13
2022-11-08T14:26:55.652Z,72.45
2022-11-08T14:29:25.967Z,72.45
2022-11-08T14:32:05.560Z,72.38
2022-11-08T14:34:35.632Z,72.25
2022-11-08T14:37:05.485Z,72.58
2022-11-08T14:39:35.675Z,72.65
2022-11-08T14:42:06.149Z,72.25
2022-11-08T14:44:36.053Z,72.40
2022-11-08T14:47:05.421Z,72.02
2022-11-08T14:49:35.812Z,72.03
2022-11-08T14:52:10.895Z,71.83
2022-11-08T14:54:40.857Z,71.77
2022-11-08T14:57:31.493Z,71.83
2022-11-08T15:00:03.349Z,71.76
2022-11-08T15:02:31.481Z,71.69
2022-11-08T15:04:59.337Z,70.68
2022-11-08T15:07:27.699Z,70.55
2022-11-08T15:09:56.281Z,69.71
2022-11-08T15:12:26.079Z,69.34
2022-11-08T15:14:58.597Z,68.86
2022-11-08T15:17:37.372Z,68.66
2022-11-08T15:20:08.626Z,68.59
2022-11-08T15:22:37.354Z,68.56
2022-11-08T15:25:23.848Z,68.30
2022-11-08T15:27:54.504Z,68.70
2022-11-08T15:30:32.632Z,69.36
2022-11-08T15:33:03.289Z,69.38
2022-11-08T15:35:36.632Z,69.99
2022-11-08T15:38:06.341Z,70.31
2022-11-08T15:40:35.988Z,70.46
2022-11-08T15:43:04.565Z,71.01
2022-11-08T15:45:35.636Z,71.32
2022-11-08T15:48:22.626Z,71.26
2022-11-08T15:50:51.087Z,71.34
2022-11-08T15:53:19.299Z,71.24
2022-11-08T15:55:50.283Z,71.99
2022-11-08T15:58:22.478Z,72.35
2022-11-08T16:00:51.015Z,72.86
2022-11-08T16:03:20.261Z,72.37
2022-11-08T16:05:47.989Z,71.92
2022-11-08T16:08:20.306Z,71.51
2022-11-08T16:10:51.284Z,71.03
2022-11-08T16:13:23.069Z,70.52
2022-11-08T16:15:50.836Z,70.01
2022-11-08T16:18:20.723Z,70.00
2022-11-08T16:20:48.895Z,70.00
2022-11-08T16:23:17.013Z,70.02
2022-11-08T16:25:47.082Z,70.11
2022-11-08T16:28:20.997Z,70.08
2022-11-08T16:30:49.002Z,70.28
2022-11-08T16:33:22.174Z,70.27
2022-11-08T16:35:50.426Z,70.44
2022-11-08T16:38:23.557Z,70.63
2022-11-08T16:40:51.255Z,71.26
2022-11-08T16:43:18.940Z,71.87
2022-11-08T16:48:38.185Z,73.81
2022-11-08T16:51:08.052Z,74.60
2022-11-08T16:53:36.744Z,75.20
2022-11-08T16:56:04.745Z,75.50
2022-11-08T16:58:32.416Z,75.81
2022-11-08T17:01:00.306Z,76.03
2022-11-08T17:03:29.665Z,76.35
2022-11-08T17:05:59.402Z,76.62
2022-11-08T17:08:27.476Z,76.91
2022-11-08T17:10:55.568Z,77.59
2022-11-08T17:13:23.884Z,77.88
2022-11-08T17:15:52.274Z,78.16
2022-11-08T17:18:21.761Z,78.54
2022-11-08T17:20:51.561Z,78.79
2022-11-08T17:23:22.284Z,78.83
2022-11-08T17:25:50.048Z,79.03
2022-11-08T17:28:18.165Z,79.08
2022-11-08T17:30:46.123Z,78.60
2022-11-08T17:33:14.304Z,77.97
2022-11-08T17:35:44.375Z,77.78
2022-11-08T17:38:12.740Z,77.47
2022-11-08T17:40:42.636Z,77.63
2022-11-08T17:43:10.636Z,77.73
2022-11-08T17:45:38.399Z,77.95
2022-11-08T17:48:06.367Z,78.00
2022-11-08T17:50:34.131Z,78.17
2022-11-08T17:53:01.910Z,77.56
2022-11-08T17:55:29.712Z,77.01
2022-11-08T17:57:58.819Z,76.18
2022-11-08T18:00:26.824Z,75.13
2022-11-08T18:02:54.712Z,74.53
2022-11-08T18:05:22.496Z,74.22
2022-11-08T18:07:50.385Z,73.63
2022-11-08T18:10:18.234Z,73.59
2022-11-08T18:12:46.071Z,73.42
2022-11-08T18:15:15.201Z,72.97
2022-11-08T18:17:42.980Z,72.75
2022-11-08T18:20:11.563Z,72.54
2022-11-08T18:22:39.370Z,72.56
2022-11-08T18:25:07.357Z,72.48
2022-11-08T18:27:35.104Z,73.03
2022-11-08T18:30:02.848Z,73.40
2022-11-08T18:32:31.936Z,73.77
2022-11-08T18:34:59.984Z,74.38
2022-11-08T18:37:27.747Z,74.70
2022-11-08T18:39:55.491Z,74.60
2022-11-08T18:42:23.353Z,74.38
2022-11-08T18:44:51.223Z,74.27
2022-11-08T18:47:19.032Z,74.19
2022-11-08T18:49:48.583Z,74.22
2022-11-08T18:52:16.420Z,74.28
2022-11-08T18:54:45.314Z,74.22
2022-11-08T18:57:13.071Z,74.41
2022-11-08T18:59:40.799Z,74.56
2022-11-08T19:02:10.438Z,75.18
2022-11-08T19:04:38.402Z,75.50
2022-11-08T19:07:07.592Z,75.86
2022-11-08T19:09:35.424Z,75.69
2022-11-08T19:12:06.000Z,75.79
2022-11-08T19:14:35.323Z,75.84
2022-11-08T19:17:03.254Z,76.00
2022-11-08T19:19:31.111Z,76.11
2022-11-08T19:21:58.936Z,76.21
2022-11-08T19:24:28.281Z,76.14
2022-11-08T19:26:56.051Z,76.05
2022-11-08T19:29:23.825Z,76.13
2022-11-08T19:31:51.572Z,76.34
2022-11-08T19:34:19.345Z,76.79
2022-11-08T19:36:51.285Z,76.51
2022-11-08T19:39:22.853Z,76.62
2022-11-08T19:41:51.940Z,76.64
2022-11-08T19:44:20.655Z,76.87
2022-11-08T19:46:48.820Z,76.83
2022-11-08T19:49:16.666Z,76.47
2022-11-08T19:51:44.679Z,76.59
2022-11-08T19:54:14.579Z,76.87
2022-11-08T19:59:31.569Z,77.56
2022-11-08T20:02:00.008Z,77.74
2022-11-08T20:04:28.145Z,78.00
2022-11-08T20:06:56.402Z,78.23
2022-11-08T20:09:29.972Z,78.66
2022-11-08T20:11:58.497Z,78.76
2022-11-08T20:14:26.313Z,79.15
2022-11-08T20:16:55.673Z,79.26
2022-11-08T20:19:23.753Z,79.73
2022-11-08T20:21:51.599Z,80.06
2022-11-08T20:24:19.660Z,80.29
2022-11-08T20:26:47.481Z,80.39
2022-11-08T20:29:15.547Z,80.73
2022-11-08T20:31:43.555Z,81.16
2022-11-08T20:34:13.353Z,81.67
2022-11-08T20:36:43.978Z,82.00
2022-11-08T20:39:12.899Z,82.30
2022-11-08T20:41:41.185Z,82.71
2022-11-08T20:44:10.389Z,82.89
2022-11-08T20:46:38.763Z,82.81
2022-11-08T20:49:07.309Z,82.94
2022-11-08T20:51:36.473Z,82.99
2022-11-08T20:54:04.618Z,83.15
2022-11-08T20:56:32.498Z,82.96
2022-11-08T20:59:00.270Z,83.09
2022-11-08T21:01:29.802Z,83.15
2022-11-08T21:03:57.924Z,83.30
2022-11-08T21:06:27.728Z,83.27
2022-11-08T21:09:00.699Z,83.43
2022-11-08T21:11:31.122Z,83.35
2022-11-08T21:13:59.196Z,83.96
2022-11-08T21:16:30.471Z,84.11
2022-11-08T21:19:00.094Z,83.86
2022-11-08T21:21:28.004Z,83.38
2022-11-08T21:23:57.501Z,83.25
2022-11-08T21:26:25.586Z,82.94
2022-11-08T21:28:53.358Z,82.59
2022-11-08T21:31:21.291Z,82.42
2022-11-08T21:33:49.037Z,82.25
2022-11-08T21:36:17.780Z,81.95
2022-11-08T21:38:45.989Z,81.53
2022-11-08T21:41:15.400Z,81.76
2022-11-08T21:43:45.170Z,81.60
2022-11-08T21:46:18.404Z,81.79
2022-11-08T21:48:46.278Z,82.08
2022-11-08T21:51:14.534Z,82.32
2022-11-08T21:53:52.395Z,82.53
2022-11-08T21:56:23.770Z,82.35
2022-11-08T21:58:51.592Z,82.39
2022-11-08T22:01:20.464Z,82.29
2022-11-08T22:03:49.186Z,82.10
2022-11-08T22:06:17.069Z,81.90
2022-11-08T22:08:44.870Z,81.81
2022-11-08T22:11:12.639Z,81.79
2022-11-08T22:13:41.728Z,81.91
2022-11-08T22:16:09.483Z,81.77
2022-11-08T22:21:41.380Z,82.86
2022-11-08T22:24:11.258Z,83.60
2022-11-08T22:26:39.211Z,84.10
2022-11-08T22:29:09.188Z,84.72
2022-11-08T22:31:37.775Z,85.29
2022-11-08T22:34:07.918Z,86.22
2022-11-08T22:36:37.802Z,87.11
2022-11-08T22:39:10.868Z,88.05
2022-11-08T22:41:38.652Z,87.89
2022-11-08T22:44:11.650Z,88.83
2022-11-08T22:46:40.502Z,89.44
2022-11-08T22:49:08.487Z,89.10
2022-11-08T22:51:36.216Z,89.26
2022-11-08T22:54:04.311Z,89.57
2022-11-08T22:56:32.097Z,89.63
2022-11-08T22:58:59.888Z,90.71
2022-11-08T23:01:29.048Z,91.25
2022-11-08T23:03:56.912Z,91.48
2022-11-08T23:06:24.664Z,92.10
2022-11-08T23:08:52.439Z,92.10
2022-11-08T23:11:37.628Z,92.11
2022-11-08T23:14:22.956Z,92.53
2022-11-08T23:16:52.031Z,93.17
2022-11-08T23:19:39.374Z,93.74
2022-11-08T23:22:28.099Z,94.27
2022-11-08T23:24:55.884Z,94.65
2022-11-08T23:27:42.136Z,95.00
2022-11-08T23:30:30.932Z,95.44
2022-11-08T23:32:59.980Z,96.28
2022-11-08T23:35:27.927Z,96.34
2022-11-08T23:37:56.073Z,96.78
2022-11-08T23:40:55.800Z,97.10
2022-11-08T23:43:41.022Z,97.44
2022-11-08T23:46:10.221Z,97.63
2022-11-08T23:48:40.090Z,97.38
2022-11-08T23:51:08.776Z,97.52
2022-11-08T23:53:37.742Z,97.48
2022-11-08T23:56:06.197Z,97.61
2022-11-08T23:58:34.610Z,97.73
